Time;durP1;ratioP1;P1;durP2;ratioP2;P2;SDS_P1;SDS_P2;PMS_P1;PMS_P2;Temp;Humidity;BMP_temperature;BMP_pressure;BME280_temperature;BME280_humidity;BME280_pressure;Samples;Min_cycle;Max_cycle;Signal;HPM_P1;HPM_P2
2023/10/27 00:02:10;;;;;;;;;3.00;3.00;;;;;17.02;100.00;96805.78;6236752;27;96892;-69
2023/10/27 00:05:13;;;;;;;;;3.60;3.60;;;;;17.10;100.00;96801.50;6235908;27;96489;-69
2023/10/27 00:08:16;;;;;;;;;4.00;3.50;;;;;17.14;100.00;96797.03;6237462;28;97000;-69
2023/10/27 00:11:21;;;;;;;;;4.40;4.00;;;;;17.19;100.00;96796.91;6237246;28;96980;-69
2023/10/27 00:14:24;;;;;;;;;3.00;2.80;;;;;17.17;100.00;96799.13;6236861;27;97047;-69
2023/10/27 00:17:27;;;;;;;;;2.00;2.00;;;;;17.21;100.00;96805.53;6236525;28;98562;-69
2023/10/27 00:20:30;;;;;;;;;3.40;3.40;;;;;17.21;100.00;96800.91;6237185;28;96516;-69
2023/10/27 00:23:33;;;;;;;;;3.00;3.00;;;;;17.20;100.00;96802.00;6215780;28;98927;-68
2023/10/27 00:26:38;;;;;;;;;4.00;4.00;;;;;17.04;100.00;96789.16;6234082;28;98565;-69
2023/10/27 00:29:41;;;;;;;;;1.00;1.00;;;;;17.20;100.00;96812.13;6238171;28;96663;-68
2023/10/27 00:32:44;;;;;;;;;3.00;3.00;;;;;17.12;100.00;96799.25;6235952;28;96642;-69
2023/10/27 00:35:50;;;;;;;;;3.00;3.00;;;;;17.16;100.00;96811.94;6235420;28;96420;-69
2023/10/27 00:38:53;;;;;;;;;4.00;4.00;;;;;17.16;100.00;96817.38;6237219;27;96274;-69
2023/10/27 00:41:58;;;;;;;;;3.67;3.67;;;;;17.13;100.00;96806.31;6235464;28;96713;-69
2023/10/27 00:45:02;;;;;;;;;2.00;2.00;;;;;17.15;100.00;96813.03;6237182;27;96723;-69
2023/10/27 00:48:06;;;;;;;;;1.00;1.00;;;;;17.13;100.00;96809.03;6236524;28;96583;-69
2023/10/27 00:51:11;;;;;;;;;1.00;1.00;;;;;17.09;100.00;96789.81;6235165;28;98426;-69
2023/10/27 00:54:15;;;;;;;;;2.00;1.75;;;;;17.15;100.00;96788.53;6237872;27;96812;-69
2023/10/27 00:57:22;;;;;;;;;2.00;2.00;;;;;17.21;100.00;96789.19;6252883;27;96364;-69
2023/10/27 01:00:25;;;;;;;;;1.00;1.00;;;;;17.22;100.00;96783.44;6242175;22;97687;-69
2023/10/27 01:03:29;;;;;;;;;2.00;2.00;;;;;17.24;100.00;96781.22;6236958;27;96661;-69
2023/10/27 01:06:32;;;;;;;;;2.00;2.00;;;;;17.03;100.00;96744.78;6211239;28;96657;-69
2023/10/27 01:09:35;;;;;;;;;2.00;2.00;;;;;17.23;100.00;96760.56;6212369;28;97429;-68
2023/10/27 01:12:43;;;;;;;;;2.00;1.60;;;;;17.22;100.00;96749.97;6192729;28;98423;-69
2023/10/27 01:15:46;;;;;;;;;1.00;1.00;;;;;17.23;100.00;96746.13;6210644;28;96522;-69
2023/10/27 01:18:49;;;;;;;;;2.00;2.00;;;;;17.20;100.00;96755.72;6211431;28;97019;-69
2023/10/27 01:21:53;;;;;;;;;2.40;2.40;;;;;17.23;100.00;96757.03;6212043;28;96527;-69
2023/10/27 01:24:57;;;;;;;;;3.50;3.50;;;;;17.23;100.00;96759.75;6193634;28;98579;-69
2023/10/27 01:28:02;;;;;;;;;3.00;3.00;;;;;17.22;100.00;96758.94;6211319;28;96387;-69
2023/10/27 01:31:05;;;;;;;;;2.00;2.00;;;;;17.23;100.00;96754.31;6208668;28;96471;-69
2023/10/27 01:34:09;;;;;;;;;2.00;2.00;;;;;17.22;100.00;96747.25;6211748;28;96795;-69
2023/10/27 01:37:13;;;;;;;;;3.00;3.00;;;;;17.17;100.00;96740.03;6209537;28;97594;-69
2023/10/27 01:40:17;;;;;;;;;2.00;2.00;;;;;17.12;100.00;96737.44;6209113;28;96554;-64
2023/10/27 01:43:21;;;;;;;;;2.00;2.00;;;;;17.05;100.00;96728.16;6214556;28;96528;-63
2023/10/27 01:46:24;;;;;;;;;3.40;3.40;;;;;17.00;100.00;96729.09;6212046;28;96352;-63
2023/10/27 01:49:27;;;;;;;;;2.00;2.00;;;;;16.94;100.00;96729.56;6212746;28;97107;-62
2023/10/27 01:52:31;;;;;;;;;1.00;1.00;;;;;16.88;100.00;96734.31;6228089;28;96441;-63
2023/10/27 01:55:35;;;;;;;;;2.00;2.00;;;;;16.82;100.00;96735.56;6215879;28;96783;-63
2023/10/27 01:58:40;;;;;;;;;1.00;1.00;;;;;16.79;100.00;96726.13;6215521;28;96395;-63
2023/10/27 02:01:43;;;;;;;;;3.00;3.00;;;;;16.73;100.00;96715.69;6216611;28;96344;-62
2023/10/27 02:04:46;;;;;;;;;4.00;3.50;;;;;16.67;100.00;96712.31;6214788;28;96924;-64
2023/10/27 02:07:49;;;;;;;;;2.00;2.00;;;;;16.61;100.00;96707.34;6218143;28;96478;-62
2023/10/27 02:10:54;;;;;;;;;3.40;3.40;;;;;16.57;100.00;96700.84;6216283;28;96356;-62
2023/10/27 02:13:57;;;;;;;;;5.00;4.00;;;;;16.51;100.00;96691.25;6219145;28;96528;-62
2023/10/27 02:17:00;;;;;;;;;3.40;3.40;;;;;16.46;100.00;96678.59;6219900;28;97490;-63
2023/10/27 02:20:04;;;;;;;;;2.00;2.00;;;;;16.43;100.00;96680.00;6200567;28;96879;-62
2023/10/27 02:23:07;;;;;;;;;4.40;4.40;;;;;16.40;100.00;96675.19;6220717;28;96531;-63
2023/10/27 02:26:13;;;;;;;;;3.75;3.75;;;;;16.34;100.00;96668.28;6201617;28;98393;-62
2023/10/27 02:29:17;;;;;;;;;3.00;3.00;;;;;16.27;100.00;96676.06;6219013;28;96560;-62
2023/10/27 02:32:21;;;;;;;;;4.00;4.00;;;;;16.24;100.00;96687.59;6218175;28;96335;-63
2023/10/27 02:35:25;;;;;;;;;3.00;3.00;;;;;16.17;100.00;96684.53;6218124;28;96314;-62
2023/10/27 02:38:28;;;;;;;;;3.40;3.00;;;;;16.14;100.00;96676.97;6218997;28;96392;-62
2023/10/27 02:41:33;;;;;;;;;5.60;5.60;;;;;16.10;100.00;96664.31;6217054;28;97007;-62
2023/10/27 02:44:36;;;;;;;;;4.80;4.80;;;;;16.02;100.00;96669.41;6217376;28;97327;-62
2023/10/27 02:47:39;;;;;;;;;4.00;4.00;;;;;16.03;100.00;96670.19;6216688;28;96451;-63
2023/10/27 02:50:43;;;;;;;;;5.00;5.00;;;;;15.97;100.00;96688.53;6217457;28;98912;-62
2023/10/27 02:53:46;;;;;;;;;6.00;6.00;;;;;15.96;100.00;96683.41;6200465;28;97067;-62
2023/10/27 02:56:50;;;;;;;;;4.40;4.40;;;;;15.93;100.00;96684.81;6219338;28;96460;-62
2023/10/27 02:59:53;;;;;;;;;5.00;5.00;;;;;15.87;100.00;96688.78;6217829;28;96435;-66
2023/10/27 03:02:56;;;;;;;;;4.00;4.00;;;;;15.84;100.00;96680.44;6232043;28;96424;-62
2023/10/27 03:06:00;;;;;;;;;4.80;4.80;;;;;15.77;100.00;96686.31;6216406;28;96322;-63
2023/10/27 03:09:03;;;;;;;;;5.00;5.00;;;;;15.70;100.00;96688.66;6216886;28;96589;-62
2023/10/27 03:12:08;;;;;;;;;6.00;6.00;;;;;15.70;100.00;96683.22;6217655;28;96777;-62
2023/10/27 03:15:11;;;;;;;;;4.25;4.25;;;;;15.68;100.00;96673.78;6219129;28;96334;-62
2023/10/27 03:18:17;;;;;;;;;4.00;4.00;;;;;15.64;100.00;96680.94;6217181;28;96354;-62
2023/10/27 03:21:21;;;;;;;;;4.00;3.00;;;;;15.67;100.00;96674.88;6199855;28;96670;-63
2023/10/27 03:24:24;;;;;;;;;3.00;3.00;;;;;15.66;100.00;96663.22;6216773;28;98595;-64
2023/10/27 03:27:28;;;;;;;;;3.00;2.00;;;;;15.71;100.00;96654.16;6216795;28;96995;-63
2023/10/27 03:30:32;;;;;;;;;4.40;4.40;;;;;15.70;100.00;96657.97;6215246;28;96331;-62
2023/10/27 03:33:35;;;;;;;;;3.60;3.60;;;;;15.71;100.00;96660.38;6213976;28;96671;-62
2023/10/27 03:36:38;;;;;;;;;3.40;3.00;;;;;15.68;100.00;96661.00;6216956;28;96237;-63
2023/10/27 03:39:42;;;;;;;;;5.40;4.40;;;;;15.68;100.00;96655.56;6217913;28;96310;-62
2023/10/27 03:42:47;;;;;;;;;5.60;4.00;;;;;15.66;100.00;96652.34;6224608;28;96283;-63
2023/10/27 03:45:50;;;;;;;;;3.00;3.00;;;;;15.65;100.00;96648.03;6197435;28;96664;-62
2023/10/27 03:48:54;;;;;;;;;1.00;1.00;;;;;15.65;100.00;96653.47;6215458;28;97160;-62
2023/10/27 03:51:59;;;;;;;;;5.40;5.40;;;;;15.59;100.00;96644.63;6205190;28;98709;-63
2023/10/27 03:55:02;;;;;;;;;4.60;4.20;;;;;15.57;100.00;96636.00;6211503;28;96340;-62
2023/10/27 03:58:16;;;;;;;;;2.40;2.40;;;;;15.60;100.00;96648.16;6213027;28;96279;-62
2023/10/27 04:01:23;;;;;;;;;5.00;4.40;;;;;15.57;100.00;96640.63;6212951;28;96395;-63
2023/10/27 04:04:26;;;;;;;;;4.40;4.40;;;;;15.51;100.00;96644.56;6212498;28;96743;-62
2023/10/27 04:07:29;;;;;;;;;6.00;6.00;;;;;15.50;100.00;96643.72;6214868;28;96326;-63
2023/10/27 04:10:33;;;;;;;;;5.00;5.00;;;;;15.50;100.00;96638.31;6196379;28;98475;-63
2023/10/27 04:13:37;;;;;;;;;3.00;3.00;;;;;15.52;100.00;96635.31;6215824;28;96521;-63
2023/10/27 04:16:40;;;;;;;;;4.00;3.50;;;;;15.52;100.00;96635.31;6230396;27;96690;-62
2023/10/27 04:19:44;;;;;;;;;6.00;6.00;;;;;15.51;100.00;96629.09;6214397;28;96336;-63
2023/10/27 04:22:47;;;;;;;;;2.80;2.00;;;;;15.53;100.00;96623.34;6211597;28;96641;-65
2023/10/27 04:25:51;;;;;;;;;7.00;6.60;;;;;15.52;100.00;96625.25;6213800;28;97681;-63
2023/10/27 04:28:55;;;;;;;;;6.60;6.00;;;;;15.53;100.00;96631.50;6248765;27;96427;-62
2023/10/27 04:32:02;;;;;;;;;5.50;5.50;;;;;15.49;100.00;96622.34;6215422;28;96503;-63
2023/10/27 04:35:06;;;;;;;;;4.60;4.60;;;;;15.55;100.00;96615.69;6206041;28;97044;-63
2023/10/27 04:38:09;;;;;;;;;4.25;3.75;;;;;15.56;100.00;96615.38;6212343;28;96855;-64
2023/10/27 04:41:12;;;;;;;;;4.00;4.00;;;;;15.58;100.00;96609.66;6210174;28;99028;-63
2023/10/27 04:44:22;;;;;;;;;4.00;3.80;;;;;15.59;100.00;96608.53;6215128;28;96410;-67
2023/10/27 04:47:25;;;;;;;;;4.25;4.25;;;;;15.59;100.00;96606.59;6214274;28;96703;-65
2023/10/27 04:50:28;;;;;;;;;4.00;3.60;;;;;15.59;100.00;96603.91;6210029;28;97004;-63
2023/10/27 04:53:32;;;;;;;;;2.00;2.00;;;;;15.68;100.00;96598.53;6213913;28;96528;-63
2023/10/27 04:56:35;;;;;;;;;4.00;4.00;;;;;15.71;100.00;96597.91;6213517;28;96525;-64
2023/10/27 04:59:40;;;;;;;;;4.00;4.00;;;;;15.75;100.00;96595.38;6215965;28;96346;-63
2023/10/27 05:02:43;;;;;;;;;5.00;5.00;;;;;15.74;100.00;96583.69;6215884;28;96905;-63
2023/10/27 05:05:46;;;;;;;;;4.60;4.60;;;;;15.72;100.00;96588.66;6231154;28;96367;-64
2023/10/27 05:08:51;;;;;;;;;6.00;5.00;;;;;15.74;100.00;96586.41;6198493;28;96549;-63
2023/10/27 05:11:54;;;;;;;;;5.00;5.00;;;;;15.76;100.00;96586.13;6209691;28;96700;-69
2023/10/27 05:14:59;;;;;;;;;6.00;6.00;;;;;15.82;100.00;96576.72;6209081;28;96848;-69
2023/10/27 05:18:05;;;;;;;;;6.00;6.00;;;;;15.83;100.00;96581.06;6210354;28;96220;-69
2023/10/27 05:21:15;;;;;;;;;6.40;6.00;;;;;15.87;100.00;96579.31;6220436;28;97724;-69
2023/10/27 05:24:18;;;;;;;;;8.60;8.40;;;;;15.87;100.00;96569.25;6207875;28;97481;-69
2023/10/27 05:27:21;;;;;;;;;7.00;6.33;;;;;15.89;100.00;96577.88;6208140;28;96943;-68
2023/10/27 05:30:25;;;;;;;;;7.00;6.00;;;;;15.93;100.00;96580.78;6203386;28;98290;-69
2023/10/27 05:33:28;;;;;;;;;6.00;6.00;;;;;15.96;100.00;96575.53;6209560;28;96555;-69
2023/10/27 05:36:32;;;;;;;;;8.00;8.00;;;;;15.96;100.00;96583.69;6209122;28;97075;-69
2023/10/27 05:39:35;;;;;;;;;8.40;8.40;;;;;16.00;100.00;96581.13;6208555;28;99069;-69
2023/10/27 05:42:38;;;;;;;;;6.00;6.00;;;;;15.99;100.00;96580.31;6210409;28;96687;-69
2023/10/27 05:45:43;;;;;;;;;4.80;4.00;;;;;16.00;100.00;96575.69;6209466;28;96543;-69
2023/10/27 05:48:46;;;;;;;;;5.25;5.25;;;;;15.99;100.00;96574.09;6209573;28;96813;-70
2023/10/27 05:51:49;;;;;;;;;5.60;5.60;;;;;16.02;100.00;96570.75;6211575;28;97153;-69
2023/10/27 05:54:52;;;;;;;;;6.00;6.00;;;;;16.01;100.00;96569.16;6192865;28;98311;-69
2023/10/27 05:57:55;;;;;;;;;7.00;7.00;;;;;16.04;100.00;96554.94;6209482;28;97117;-69
2023/10/27 06:01:00;;;;;;;;;6.60;6.00;;;;;16.05;100.00;96559.25;6210051;28;96785;-69
2023/10/27 06:04:04;;;;;;;;;7.00;6.80;;;;;15.93;100.00;96564.50;6209816;28;96611;-69
2023/10/27 06:07:07;;;;;;;;;6.00;5.40;;;;;15.91;100.00;96564.00;6209860;28;96521;-69
2023/10/27 06:10:11;;;;;;;;;6.60;6.60;;;;;15.84;100.00;96555.47;6210924;28;96603;-69
2023/10/27 06:13:14;;;;;;;;;6.00;5.00;;;;;15.91;100.00;96564.78;6211553;28;96361;-69
2023/10/27 06:16:19;;;;;;;;;5.60;5.60;;;;;15.91;100.00;96566.72;6209974;28;96562;-69
2023/10/27 06:19:24;;;;;;;;;5.60;5.00;;;;;15.91;100.00;96575.66;6210348;28;96526;-69
2023/10/27 06:22:27;;;;;;;;;7.00;7.00;;;;;15.87;100.00;96580.13;6190404;28;99692;-69
2023/10/27 06:25:30;;;;;;;;;5.80;5.80;;;;;15.90;100.00;96573.25;6208149;28;98455;-68
2023/10/27 06:28:34;;;;;;;;;7.00;7.00;;;;;15.88;100.00;96573.53;6206677;28;96907;-70
2023/10/27 06:31:39;;;;;;;;;5.00;5.00;;;;;15.93;100.00;96573.41;6211072;28;96318;-69
2023/10/27 06:34:43;;;;;;;;;8.00;8.00;;;;;15.96;100.00;96569.28;6208279;28;98634;-70
2023/10/27 06:37:46;;;;;;;;;6.00;5.50;;;;;15.99;100.00;96568.66;6205868;28;97605;-69
2023/10/27 06:40:49;;;;;;;;;6.00;5.60;;;;;16.04;100.00;96561.16;6197177;28;96516;-69
2023/10/27 06:43:53;;;;;;;;;5.60;5.00;;;;;16.12;100.00;96577.84;6190798;28;96927;-70
2023/10/27 06:46:57;;;;;;;;;6.75;5.75;;;;;16.14;100.00;96573.69;6202634;28;96436;-70
2023/10/27 06:50:01;;;;;;;;;5.00;5.00;;;;;16.17;100.00;96561.41;6213199;28;96827;-69
2023/10/27 06:53:04;;;;;;;;;6.00;6.00;;;;;16.20;100.00;96564.28;6210527;28;96465;-70
2023/10/27 06:56:08;;;;;;;;;6.00;6.00;;;;;16.28;100.00;96558.06;6213849;28;97560;-70
2023/10/27 06:59:11;;;;;;;;;6.00;6.00;;;;;16.34;100.00;96562.25;6215048;28;96400;-69
2023/10/27 07:02:15;;;;;;;;;7.60;6.40;;;;;16.42;100.00;96563.38;6214465;28;96785;-69
2023/10/27 07:05:19;;;;;;;;;5.60;5.00;;;;;16.47;100.00;96564.03;6195126;28;98403;-69
2023/10/27 07:08:22;;;;;;;;;6.00;6.00;;;;;16.53;100.00;96563.91;6210437;28;96661;-69
2023/10/27 07:11:25;;;;;;;;;5.75;5.75;;;;;16.59;100.00;96554.50;6212641;28;96529;-69
2023/10/27 07:14:28;;;;;;;;;5.00;4.80;;;;;16.62;100.00;96556.59;6211699;28;97199;-69
2023/10/27 07:17:33;;;;;;;;;6.00;6.00;;;;;16.62;100.00;96553.88;6206095;28;96646;-69
2023/10/27 07:20:39;;;;;;;;;5.20;4.80;;;;;16.64;100.00;96551.66;6211753;28;97196;-69
2023/10/27 07:23:42;;;;;;;;;9.60;9.40;;;;;16.68;100.00;96547.16;6196911;28;96890;-69
2023/10/27 07:26:46;;;;;;;;;7.00;6.60;;;;;16.70;100.00;96543.03;6212839;28;96742;-69
2023/10/27 07:29:49;;;;;;;;;6.40;6.00;;;;;16.72;100.00;96537.25;6230978;28;97346;-69
2023/10/27 07:32:53;;;;;;;;;7.00;7.00;;;;;16.76;100.00;96546.41;6215842;28;96476;-63
2023/10/27 07:35:57;;;;;;;;;7.00;7.00;;;;;16.72;100.00;96551.66;6214404;28;96710;-63
2023/10/27 07:39:00;;;;;;;;;7.00;6.60;;;;;16.74;100.00;96552.16;6212572;28;98458;-63
2023/10/27 07:42:04;;;;;;;;;7.00;6.40;;;;;16.73;100.00;96547.00;6183035;28;96369;-64
2023/10/27 07:45:08;;;;;;;;;8.40;7.00;;;;;16.72;100.00;96542.69;6189602;28;96355;-65
2023/10/27 07:48:13;;;;;;;;;9.00;8.50;;;;;16.72;100.00;96531.81;6189779;28;96645;-64
2023/10/27 07:51:16;;;;;;;;;5.40;5.00;;;;;16.71;100.00;96533.72;6188409;28;96507;-64
2023/10/27 07:54:19;;;;;;;;;7.00;7.00;;;;;16.73;100.00;96538.84;6190027;28;96982;-64
2023/10/27 07:57:23;;;;;;;;;5.60;5.60;;;;;16.78;100.00;96530.53;6189958;28;96644;-63
2023/10/27 08:00:26;;;;;;;;;6.80;5.20;;;;;16.71;100.00;96522.84;6189578;28;96533;-63
2023/10/27 08:03:30;;;;;;;;;5.00;5.00;;;;;16.76;100.00;96517.25;6190387;28;96467;-64
2023/10/27 08:06:34;;;;;;;;;6.20;6.00;;;;;16.76;100.00;96519.19;6212601;28;96406;-63
2023/10/27 08:09:37;;;;;;;;;7.75;7.00;;;;;16.76;100.00;96516.47;6192703;28;96376;-64
2023/10/27 08:12:40;;;;;;;;;7.20;7.20;;;;;16.77;100.00;96515.31;6215666;28;96342;-63
2023/10/27 08:15:44;;;;;;;;;4.60;4.60;;;;;16.81;100.00;96508.16;6214226;28;96702;-66
2023/10/27 08:18:48;;;;;;;;;7.00;6.00;;;;;16.79;100.00;96513.91;6215881;28;97497;-63
2023/10/27 08:21:51;;;;;;;;;7.60;5.60;;;;;16.79;100.00;96503.03;6215760;28;96554;-63
2023/10/27 08:24:55;;;;;;;;;7.25;6.50;;;;;16.81;100.00;96492.59;6230183;28;96598;-63
2023/10/27 08:27:58;;;;;;;;;7.40;6.40;;;;;16.83;100.00;96497.72;6214667;28;96304;-63
2023/10/27 08:31:02;;;;;;;;;6.25;6.00;;;;;16.92;100.00;96495.81;6215173;28;96416;-64
2023/10/27 08:34:10;;;;;;;;;8.00;8.00;;;;;16.93;100.00;96497.41;6214270;28;96525;-62
2023/10/27 08:37:16;;;;;;;;;6.00;6.00;;;;;16.98;100.00;96499.19;6213908;28;96390;-63
2023/10/27 08:40:19;;;;;;;;;8.00;7.00;;;;;16.99;100.00;96495.34;6214889;28;96320;-70
2023/10/27 08:43:23;;;;;;;;;6.00;5.00;;;;;17.04;100.00;96497.91;6203529;28;96417;-70
2023/10/27 08:46:27;;;;;;;;;6.80;6.80;;;;;17.09;100.00;96487.66;6213517;28;96378;-70
2023/10/27 08:49:31;;;;;;;;;7.00;7.00;;;;;17.12;100.00;96472.59;6213569;28;96494;-70
2023/10/27 08:52:35;;;;;;;;;6.75;6.75;;;;;17.15;100.00;96480.91;6213430;28;96273;-70
2023/10/27 08:55:38;;;;;;;;;8.40;8.40;;;;;17.18;100.00;96474.84;6212902;28;96615;-70
2023/10/27 08:58:48;;;;;;;;;9.50;9.00;;;;;17.20;100.00;96477.25;6212592;28;98272;-70
2023/10/27 09:01:51;;;;;;;;;8.60;8.00;;;;;17.20;100.00;96472.56;6212183;28;96578;-70
2023/10/27 09:05:01;;;;;;;;;9.00;8.00;;;;;17.23;100.00;96471.94;6210211;28;98519;-70
2023/10/27 09:08:04;;;;;;;;;8.20;8.20;;;;;17.26;100.00;96463.13;6211910;28;97768;-71
2023/10/27 09:11:07;;;;;;;;;9.40;9.00;;;;;17.32;100.00;96458.31;6211248;28;99486;-71
2023/10/27 09:14:18;;;;;;;;;10.00;9.00;;;;;17.31;100.00;96449.34;6211762;28;96715;-70
2023/10/27 09:17:22;;;;;;;;;10.00;9.00;;;;;17.33;100.00;96458.00;6203188;28;96584;-70
2023/10/27 09:20:27;;;;;;;;;7.25;7.25;;;;;17.29;100.00;96457.03;6187991;28;96283;-71
2023/10/27 09:23:44;;;;;;;;;9.00;9.00;;;;;17.21;100.00;96459.75;6200711;28;96957;-70
2023/10/27 09:26:47;;;;;;;;;8.00;8.00;;;;;17.22;100.00;96461.38;6213721;28;96455;-70
2023/10/27 09:29:51;;;;;;;;;9.60;8.00;;;;;17.19;100.00;96457.38;6212805;28;97188;-70
2023/10/27 09:32:55;;;;;;;;;9.00;9.00;;;;;17.17;100.00;96445.19;6212470;28;96910;-70
2023/10/27 09:36:02;;;;;;;;;7.60;7.40;;;;;17.12;100.00;96440.72;6212282;28;97696;-71
2023/10/27 09:39:05;;;;;;;;;7.00;7.00;;;;;17.06;100.00;96433.03;6211988;28;96172;-70
2023/10/27 09:42:09;;;;;;;;;7.60;6.60;;;;;16.94;100.00;96433.72;6211921;28;96909;-70
2023/10/27 09:45:13;;;;;;;;;5.00;5.00;;;;;16.87;100.00;96426.03;6210789;28;96502;-71
2023/10/27 09:48:22;;;;;;;;;6.67;6.67;;;;;16.90;100.00;96427.31;6210538;28;96550;-70
2023/10/27 09:51:29;;;;;;;;;6.00;5.25;;;;;16.92;100.00;96425.06;6211781;28;96337;-70
2023/10/27 09:54:33;;;;;;;;;7.50;6.00;;;;;16.96;100.00;96415.13;6194752;28;97279;-70
2023/10/27 09:57:38;;;;;;;;;6.20;5.20;;;;;16.88;100.00;96413.22;6211815;28;96259;-71
2023/10/27 10:00:42;;;;;;;;;10.00;10.00;;;;;16.95;100.00;96410.03;6210813;28;97147;-70
2023/10/27 10:03:45;;;;;;;;;8.80;8.00;;;;;17.00;100.00;96399.78;6207864;28;96215;-70
2023/10/27 10:06:50;;;;;;;;;7.00;6.50;;;;;17.00;100.00;96393.53;6209185;28;96482;-70
2023/10/27 10:09:57;;;;;;;;;10.60;9.60;;;;;16.95;100.00;96393.69;6212231;28;96322;-70
2023/10/27 10:13:02;;;;;;;;;9.00;8.00;;;;;16.86;100.00;96388.25;6196023;28;96458;-70
2023/10/27 10:16:07;;;;;;;;;9.00;8.00;;;;;16.87;100.00;96382.50;6215182;28;96289;-70
2023/10/27 10:19:10;;;;;;;;;15.20;12.60;;;;;16.89;100.00;96377.53;6213861;28;96604;-71
2023/10/27 10:22:55;;;;;;;;;13.00;13.00;;;;;16.91;100.00;96374.47;6214299;28;96570;-71
2023/10/27 10:26:01;;;;;;;;;13.00;12.40;;;;;16.79;100.00;96360.75;6197316;28;97034;-71
2023/10/27 10:29:29;;;;;;;;;14.60;13.40;;;;;16.83;100.00;96353.53;6213526;28;96712;-70
2023/10/27 10:32:36;;;;;;;;;14.25;14.00;;;;;16.75;100.00;96348.91;6197001;28;98377;-71
2023/10/27 10:35:39;;;;;;;;;9.00;9.00;;;;;16.84;100.00;96346.97;6214789;28;96708;-70
2023/10/27 10:38:45;;;;;;;;;10.00;10.00;;;;;16.76;100.00;96347.78;6213591;28;96938;-70
2023/10/27 10:42:04;;;;;;;;;8.75;8.00;;;;;16.68;100.00;96335.78;6215888;28;97476;-70
2023/10/27 10:45:08;;;;;;;;;10.00;9.00;;;;;16.70;100.00;96325.41;6219951;28;96385;-70
2023/10/27 10:48:11;;;;;;;;;9.00;8.80;;;;;16.70;100.00;96311.78;6213765;28;97267;-69
2023/10/27 10:51:15;;;;;;;;;9.25;9.00;;;;;16.73;100.00;96311.13;6212283;28;96628;-69
2023/10/27 10:54:28;;;;;;;;;8.25;8.25;;;;;16.70;100.00;96300.09;6213509;28;96416;-69
2023/10/27 10:57:32;;;;;;;;;8.00;8.00;;;;;16.68;100.00;96294.97;6211775;28;96731;-70
2023/10/27 11:00:35;;;;;;;;;6.20;6.20;;;;;16.71;100.00;96282.66;6214160;28;96654;-68
2023/10/27 11:03:38;;;;;;;;;8.00;7.00;;;;;16.70;100.00;96275.63;6212290;28;97231;-69
2023/10/27 11:06:41;;;;;;;;;10.40;9.00;;;;;16.58;100.00;96273.56;6213357;28;96673;-69
2023/10/27 11:09:46;;;;;;;;;9.40;8.40;;;;;16.55;100.00;96263.31;6212064;28;96630;-69
2023/10/27 11:12:49;;;;;;;;;9.00;9.00;;;;;16.55;100.00;96254.34;6210823;28;99611;-69
2023/10/27 11:15:52;;;;;;;;;11.00;11.00;;;;;16.55;100.00;96255.16;6213467;28;96949;-69
2023/10/27 11:18:57;;;;;;;;;11.00;11.00;;;;;16.47;100.00;96247.78;6213790;28;96713;-70
2023/10/27 11:22:00;;;;;;;;;12.40;12.40;;;;;16.58;100.00;96242.81;6214076;28;96847;-69
2023/10/27 11:25:06;;;;;;;;;13.00;12.00;;;;;16.56;100.00;96239.63;6214031;28;96512;-70
2023/10/27 11:28:22;;;;;;;;;12.00;11.60;;;;;16.63;100.00;96229.06;6214360;28;96277;-69
2023/10/27 11:31:29;;;;;;;;;11.00;11.00;;;;;16.71;100.00;96226.31;6213227;28;97483;-70
2023/10/27 11:34:32;;;;;;;;;11.00;11.00;;;;;16.80;100.00;96231.75;6214005;28;96511;-68
2023/10/27 11:37:39;;;;;;;;;12.00;11.00;;;;;16.76;100.00;96228.09;6213711;28;96625;-69
2023/10/27 11:40:43;;;;;;;;;12.50;11.50;;;;;16.72;100.00;96235.28;6214159;28;96503;-65
2023/10/27 11:43:47;;;;;;;;;15.00;14.00;;;;;16.72;100.00;96221.69;6212111;28;96585;-64
2023/10/27 11:46:51;;;;;;;;;13.00;12.50;;;;;16.76;100.00;96223.41;6212384;28;96477;-65
2023/10/27 11:49:54;;;;;;;;;12.40;12.00;;;;;16.78;100.00;96220.38;6211993;28;96862;-65
2023/10/27 11:52:58;;;;;;;;;11.00;11.00;;;;;16.82;100.00;96218.59;6211631;28;97841;-65
2023/10/27 11:56:04;;;;;;;;;14.40;13.40;;;;;16.87;100.00;96221.16;6210500;28;96613;-65
2023/10/27 11:59:10;;;;;;;;;15.00;14.00;;;;;16.81;100.00;96222.47;6213199;28;98153;-65
2023/10/27 12:02:13;;;;;;;;;14.75;14.75;;;;;16.82;100.00;96222.13;6212789;28;97450;-65
2023/10/27 12:05:16;;;;;;;;;11.00;11.00;;;;;16.88;100.00;96234.44;6211191;28;96997;-65
2023/10/27 12:08:20;;;;;;;;;13.40;12.40;;;;;16.97;100.00;96233.59;6214768;28;96260;-65
2023/10/27 12:11:27;;;;;;;;;13.20;12.00;;;;;16.92;100.00;96226.41;6212626;28;96311;-68
2023/10/27 12:14:30;;;;;;;;;11.00;11.00;;;;;16.95;100.00;96225.78;6203846;28;96419;-69
2023/10/27 12:17:34;;;;;;;;;15.00;14.00;;;;;16.99;100.00;96232.16;6211674;28;97198;-69
2023/10/27 12:20:39;;;;;;;;;11.20;10.20;;;;;17.01;100.00;96231.81;6229297;28;96605;-70
2023/10/27 12:23:43;;;;;;;;;12.20;11.20;;;;;17.07;100.00;96220.41;6200864;28;96529;-70
2023/10/27 12:26:47;;;;;;;;;12.00;12.00;;;;;17.13;100.00;96227.28;6202847;28;96552;-70
2023/10/27 12:29:50;;;;;;;;;13.00;12.50;;;;;17.17;100.00;96219.25;6227204;28;96432;-70
2023/10/27 12:32:53;;;;;;;;;14.80;13.00;;;;;17.19;100.00;96209.63;6233536;28;96666;-70
2023/10/27 12:35:56;;;;;;;;;14.40;13.80;;;;;17.17;100.00;96203.72;6236729;28;99125;-70
2023/10/27 12:39:01;;;;;;;;;14.00;11.80;;;;;17.18;100.00;96201.78;6218891;27;96452;-69
2023/10/27 12:42:07;;;;;;;;;11.20;10.00;;;;;17.26;100.00;96195.50;6212389;28;97124;-70
2023/10/27 12:45:13;;;;;;;;;12.60;12.00;;;;;17.19;100.00;96170.72;6213190;28;96354;-70
2023/10/27 12:48:16;;;;;;;;;13.00;13.00;;;;;17.29;100.00;96173.88;6211529;28;96776;-70
2023/10/27 12:51:19;;;;;;;;;14.00;13.00;;;;;17.32;100.00;96159.59;6212872;28;96239;-70
2023/10/27 12:54:22;;;;;;;;;15.60;14.60;;;;;17.39;100.00;96153.63;6212389;28;96683;-69
2023/10/27 12:57:27;;;;;;;;;13.00;13.00;;;;;17.39;100.00;96148.19;6212637;28;96882;-69
2023/10/27 13:00:33;;;;;;;;;18.40;17.40;;;;;17.42;100.00;96141.25;6212288;28;96890;-70
2023/10/27 13:03:36;;;;;;;;;14.25;13.00;;;;;17.46;100.00;96145.69;6211282;28;96956;-70
2023/10/27 13:06:40;;;;;;;;;15.75;14.75;;;;;17.48;100.00;96150.81;6209288;28;99727;-70
2023/10/27 13:09:43;;;;;;;;;17.00;16.25;;;;;17.51;100.00;96142.78;6211551;28;96686;-70
2023/10/27 13:12:47;;;;;;;;;20.75;18.75;;;;;17.57;100.00;96148.81;6209569;28;96935;-70
2023/10/27 13:15:50;;;;;;;;;17.40;16.40;;;;;17.58;100.00;96137.59;6210166;28;96304;-70
2023/10/27 13:18:53;;;;;;;;;17.00;16.00;;;;;17.61;100.00;96136.16;6193025;28;97110;-71
2023/10/27 13:21:57;;;;;;;;;17.50;16.75;;;;;17.59;100.00;96144.66;6228484;28;96403;-62
2023/10/27 13:25:00;;;;;;;;;18.20;17.00;;;;;17.61;100.00;96128.78;6227922;28;97002;-64
2023/10/27 13:28:05;;;;;;;;;18.50;15.75;;;;;17.59;100.00;96125.59;6213236;28;97381;-63
2023/10/27 13:31:08;;;;;;;;;18.67;16.00;;;;;17.58;100.00;96128.63;6213380;28;96690;-63
2023/10/27 13:34:13;;;;;;;;;15.80;14.20;;;;;17.53;100.00;96132.38;6212334;28;96682;-62
2023/10/27 13:37:17;;;;;;;;;18.25;16.75;;;;;17.58;100.00;96136.81;6211261;28;96540;-63
2023/10/27 13:40:20;;;;;;;;;16.00;14.75;;;;;17.59;100.00;96125.59;6196904;28;96742;-63
2023/10/27 13:43:24;;;;;;;;;15.00;14.40;;;;;17.60;100.00;96131.84;6212698;28;96521;-63
2023/10/27 13:46:28;;;;;;;;;14.80;13.00;;;;;17.59;100.00;96128.31;6210358;28;96467;-62
2023/10/27 13:49:32;;;;;;;;;12.50;12.00;;;;;17.61;100.00;96128.00;6210424;28;96850;-65
2023/10/27 13:52:35;;;;;;;;;12.60;12.00;;;;;17.60;100.00;96134.56;6212760;28;97423;-62
2023/10/27 13:55:43;;;;;;;;;16.00;15.40;;;;;17.63;100.00;96136.63;6214749;28;96579;-65
2023/10/27 13:58:49;;;;;;;;;15.00;15.00;;;;;17.64;100.00;96140.97;6214997;28;96380;-63
2023/10/27 14:01:52;;;;;;;;;14.75;14.75;;;;;17.67;100.00;96153.91;6215016;28;96511;-63
2023/10/27 14:04:56;;;;;;;;;13.60;12.00;;;;;17.69;100.00;96146.22;6211653;28;96608;-63
2023/10/27 14:07:59;;;;;;;;;13.60;13.60;;;;;17.69;100.00;96146.22;6207246;28;97443;-63
2023/10/27 14:11:05;;;;;;;;;14.00;13.00;;;;;17.72;100.00;96137.34;6214875;28;96493;-63
2023/10/27 14:14:12;;;;;;;;;10.75;10.00;;;;;17.70;100.00;96125.97;6214650;28;96476;-67